Time;durP1;ratioP1;P1;durP2;ratioP2;P2;SDS_P1;SDS_P2;PMS_P1;PMS_P2;Temp;Humidity;BMP_temperature;BMP_pressure;BME280_temperature;BME280_humidity;BME280_pressure;Samples;Min_cycle;Max_cycle;Signal;HPM_P1;HPM_P2
2024/01/05 00:01:37;;;;;;;29.07;3.57;;;7.80;99.90;;;;;;5035168;28;20162;-81
2024/01/05 00:04:03;;;;;;;25.57;2.80;;;7.90;99.90;;;;;;5034834;28;20239;-81
2024/01/05 00:06:29;;;;;;;28.73;3.20;;;7.90;99.90;;;;;;5034273;28;20335;-81
2024/01/05 00:08:55;;;;;;;26.65;3.38;;;7.90;99.90;;;;;;5034764;28;20157;-80
2024/01/05 00:11:21;;;;;;;26.00;2.70;;;7.90;99.90;;;;;;5034701;28;20158;-81
2024/01/05 00:13:48;;;;;;;25.10;2.80;;;7.90;99.90;;;;;;5034599;28;20181;-79
2024/01/05 00:16:21;;;;;;;24.17;2.65;;;7.90;99.90;;;;;;5034404;28;20194;-80
2024/01/05 00:18:47;;;;;;;29.67;2.53;;;7.90;99.90;;;;;;5035027;28;20267;-81
2024/01/05 00:21:23;;;;;;;26.55;2.50;;;7.90;99.90;;;;;;5034457;28;20198;-80
2024/01/05 00:23:50;;;;;;;29.80;3.45;;;7.90;99.90;;;;;;5034962;28;20663;-81
2024/01/05 00:26:16;;;;;;;26.30;3.13;;;7.90;99.90;;;;;;5034592;28;20182;-81
2024/01/05 00:28:43;;;;;;;24.60;2.47;;;7.90;99.90;;;;;;5016622;28;20176;-81
2024/01/05 00:31:10;;;;;;;27.95;2.83;;;7.90;99.90;;;;;;5035074;28;20277;-81
2024/01/05 00:33:37;;;;;;;23.65;2.80;;;7.90;99.90;;;;;;5034650;28;20249;-80
2024/01/05 00:36:04;;;;;;;29.00;3.55;;;7.90;99.90;;;;;;5016906;28;20213;-81
2024/01/05 00:38:29;;;;;;;27.63;2.78;;;7.90;99.90;;;;;;5034502;28;20162;-81
2024/01/05 00:40:55;;;;;;;22.60;3.27;;;7.90;99.90;;;;;;5019337;28;20177;-81
2024/01/05 00:43:21;;;;;;;25.70;2.97;;;7.90;99.90;;;;;;5038197;28;20196;-81
2024/01/05 00:45:46;;;;;;;29.33;3.13;;;7.90;99.90;;;;;;5038337;28;20563;-82
2024/01/05 00:48:12;;;;;;;25.57;3.83;;;7.90;99.90;;;;;;5038289;28;20630;-81
2024/01/05 00:50:37;;;;;;;21.33;2.60;;;7.90;99.90;;;;;;5038201;28;20185;-81
2024/01/05 00:53:03;;;;;;;21.73;2.50;;;7.90;99.90;;;;;;5038223;28;20535;-81
2024/01/05 00:55:29;;;;;;;24.70;3.13;;;7.80;99.90;;;;;;5037739;28;20177;-81
2024/01/05 00:57:54;;;;;;;26.73;3.77;;;7.80;99.90;;;;;;5037871;28;20170;-80
2024/01/05 01:00:20;;;;;;;29.10;3.80;;;7.80;99.90;;;;;;5020203;28;20268;-81
2024/01/05 01:02:46;;;;;;;24.90;3.10;;;7.70;99.90;;;;;;5038823;28;20194;-81
2024/01/05 01:05:11;;;;;;;23.73;2.43;;;7.80;99.90;;;;;;5037877;28;20186;-81
2024/01/05 01:07:39;;;;;;;21.30;2.50;;;7.70;99.90;;;;;;5037428;28;20182;-80
2024/01/05 01:10:06;;;;;;;30.48;2.45;;;7.70;99.90;;;;;;5037675;28;20662;-82
2024/01/05 01:12:31;;;;;;;33.08;3.78;;;7.70;99.90;;;;;;5037689;28;20200;-81
2024/01/05 01:14:57;;;;;;;23.43;2.40;;;7.70;99.90;;;;;;5038265;28;20161;-80
2024/01/05 01:17:22;;;;;;;25.63;2.40;;;7.70;99.90;;;;;;5019711;28;20540;-81
2024/01/05 01:19:49;;;;;;;20.83;2.80;;;7.70;99.90;;;;;;5019791;28;20663;-82
2024/01/05 01:22:15;;;;;;;22.08;2.63;;;7.70;99.90;;;;;;5037671;28;20309;-81
2024/01/05 01:24:40;;;;;;;22.03;2.50;;;7.70;99.90;;;;;;5019519;28;20528;-81
2024/01/05 01:27:06;;;;;;;27.00;2.90;;;7.70;99.90;;;;;;5037655;28;20416;-82
2024/01/05 01:29:32;;;;;;;24.93;2.77;;;7.70;99.90;;;;;;5037297;28;20166;-82
2024/01/05 01:31:57;;;;;;;22.73;3.00;;;7.70;99.90;;;;;;5019476;28;20170;-80
2024/01/05 01:34:23;;;;;;;25.30;2.90;;;7.60;99.90;;;;;;5037578;28;20166;-81
2024/01/05 01:36:51;;;;;;;26.70;2.80;;;7.60;99.90;;;;;;5037265;28;20217;-81
2024/01/05 01:39:16;;;;;;;26.75;3.10;;;7.60;99.90;;;;;;5037163;28;20176;-80
2024/01/05 01:41:42;;;;;;;23.83;2.60;;;7.60;99.90;;;;;;5037034;28;20161;-80
2024/01/05 01:44:08;;;;;;;30.17;3.50;;;7.50;99.90;;;;;;5037017;28;20190;-80
2024/01/05 01:46:36;;;;;;;24.77;2.50;;;7.50;99.90;;;;;;5037704;28;20184;-81
2024/01/05 01:49:04;;;;;;;23.35;2.58;;;7.50;99.90;;;;;;5037085;28;20396;-82
2024/01/05 01:51:31;;;;;;;24.25;3.40;;;7.50;99.90;;;;;;5035814;28;20174;-81
2024/01/05 01:54:03;;;;;;;25.27;3.08;;;7.50;99.90;;;;;;5037017;28;20166;-82
2024/01/05 01:56:30;;;;;;;24.67;2.70;;;7.50;99.90;;;;;;5036546;28;20194;-81
2024/01/05 01:58:56;;;;;;;24.48;2.67;;;7.60;99.90;;;;;;5019492;28;20181;-80
2024/01/05 02:01:21;;;;;;;29.88;2.85;;;7.60;99.90;;;;;;5036710;28;20710;-81
2024/01/05 02:03:47;;;;;;;26.73;2.90;;;7.60;99.90;;;;;;5036573;28;20285;-81
2024/01/05 02:06:14;;;;;;;26.57;2.50;;;7.60;99.90;;;;;;5036736;28;20670;-81
2024/01/05 02:08:40;;;;;;;20.20;2.33;;;7.60;99.90;;;;;;5036656;28;20424;-81
2024/01/05 02:11:06;;;;;;;22.63;2.30;;;7.60;99.90;;;;;;5036738;28;20195;-81
2024/01/05 02:13:32;;;;;;;22.37;2.80;;;7.60;99.90;;;;;;5036646;28;20650;-81
2024/01/05 02:15:58;;;;;;;24.35;2.85;;;7.60;99.90;;;;;;5036267;28;20425;-81
2024/01/05 02:18:24;;;;;;;25.27;2.63;;;7.60;99.90;;;;;;5036266;28;20200;-80
2024/01/05 02:20:49;;;;;;;24.70;2.53;;;7.60;99.90;;;;;;5036638;28;20170;-82
2024/01/05 02:23:26;;;;;;;26.00;2.70;;;7.70;99.90;;;;;;5036361;28;20273;-81
2024/01/05 02:25:55;;;;;;;22.60;2.35;;;7.60;99.90;;;;;;5036281;28;20190;-80
2024/01/05 02:28:21;;;;;;;32.50;3.92;;;7.60;99.90;;;;;;5018402;28;20166;-82
2024/01/05 02:30:47;;;;;;;22.27;2.10;;;7.60;99.90;;;;;;5035985;28;20658;-81
2024/01/05 02:33:13;;;;;;;22.00;1.98;;;7.60;99.90;;;;;;5036367;28;20204;-81
2024/01/05 02:35:39;;;;;;;22.43;2.07;;;7.60;99.90;;;;;;5036236;28;20574;-81
2024/01/05 02:38:05;;;;;;;23.83;2.60;;;7.60;99.90;;;;;;5036046;28;20396;-81
2024/01/05 02:40:31;;;;;;;27.15;2.78;;;7.60;99.90;;;;;;5036079;28;20458;-80
2024/01/05 02:42:57;;;;;;;21.63;2.40;;;7.50;99.90;;;;;;5036158;28;20185;-81
2024/01/05 02:45:24;;;;;;;22.50;2.00;;;7.50;99.90;;;;;;5018720;28;20219;-82
2024/01/05 02:47:53;;;;;;;22.58;2.33;;;7.50;99.90;;;;;;5036234;28;20158;-81
2024/01/05 02:50:19;;;;;;;27.73;2.55;;;7.50;99.90;;;;;;5018027;28;20265;-81
2024/01/05 02:52:45;;;;;;;22.25;2.53;;;7.50;99.90;;;;;;5018700;28;20535;-82
2024/01/05 02:55:11;;;;;;;24.67;2.22;;;7.50;99.90;;;;;;5036253;28;20224;-81
2024/01/05 02:57:38;;;;;;;23.85;2.83;;;7.50;99.90;;;;;;5035787;28;20201;-81
2024/01/05 03:00:05;;;;;;;25.65;3.40;;;7.50;99.90;;;;;;5035433;28;20535;-80
2024/01/05 03:02:34;;;;;;;27.15;2.80;;;7.50;99.90;;;;;;5017559;28;20247;-81
2024/01/05 03:05:00;;;;;;;21.45;2.22;;;7.50;99.90;;;;;;5035942;28;20185;-81
2024/01/05 03:07:26;;;;;;;23.40;2.73;;;7.50;99.90;;;;;;5017785;28;20189;-81
2024/01/05 03:09:51;;;;;;;23.80;2.70;;;7.50;99.90;;;;;;5017530;28;20627;-81
2024/01/05 03:12:18;;;;;;;24.63;2.20;;;7.50;99.90;;;;;;5035663;28;20162;-82
2024/01/05 03:14:44;;;;;;;22.70;2.15;;;7.60;99.90;;;;;;5035707;28;20425;-82
2024/01/05 03:17:09;;;;;;;20.50;2.03;;;7.60;99.90;;;;;;5035378;28;20185;-82
2024/01/05 03:19:35;;;;;;;24.57;2.50;;;7.60;99.90;;;;;;5035943;28;20615;-82
2024/01/05 03:22:01;;;;;;;27.73;2.20;;;7.60;99.90;;;;;;5035831;28;20166;-81
2024/01/05 03:24:26;;;;;;;24.10;2.40;;;7.60;99.90;;;;;;5035771;28;20181;-82
2024/01/05 03:26:52;;;;;;;24.30;2.90;;;7.60;99.90;;;;;;5017907;28;20189;-82
2024/01/05 03:29:18;;;;;;;21.37;2.93;;;7.50;99.90;;;;;;5035739;28;20206;-81
2024/01/05 03:31:44;;;;;;;20.67;2.37;;;7.50;99.90;;;;;;5035348;28;20169;-81
2024/01/05 03:34:11;;;;;;;23.48;3.33;;;7.50;99.90;;;;;;5035723;28;20405;-82
2024/01/05 03:36:36;;;;;;;20.45;2.40;;;7.50;99.90;;;;;;5035189;28;20197;-82
2024/01/05 03:39:03;;;;;;;22.47;3.27;;;7.50;99.90;;;;;;5035232;28;20535;-81
2024/01/05 03:41:29;;;;;;;19.92;2.50;;;7.50;99.90;;;;;;5035007;28;20249;-81
2024/01/05 03:43:54;;;;;;;21.50;2.30;;;7.50;99.90;;;;;;5034543;28;20276;-81
2024/01/05 03:46:20;;;;;;;22.10;2.50;;;7.40;99.90;;;;;;5035761;28;20421;-80
2024/01/05 03:48:46;;;;;;;21.90;1.90;;;7.40;99.90;;;;;;5035176;28;20166;-81
2024/01/05 03:51:12;;;;;;;26.70;2.60;;;7.40;99.90;;;;;;5034856;28;20168;-82
2024/01/05 03:53:37;;;;;;;21.47;2.10;;;7.40;99.90;;;;;;5035096;28;20170;-82
2024/01/05 03:56:03;;;;;;;22.80;2.63;;;7.40;99.90;;;;;;5017676;28;20200;-82
2024/01/05 03:58:29;;;;;;;23.58;2.10;;;7.40;99.90;;;;;;5016992;28;20260;-81
2024/01/05 04:00:55;;;;;;;20.73;1.90;;;7.40;99.90;;;;;;5017453;28;20197;-81
2024/01/05 04:03:21;;;;;;;19.65;2.00;;;7.40;99.90;;;;;;5034834;28;20190;-81
2024/01/05 04:05:47;;;;;;;23.00;1.60;;;7.40;99.90;;;;;;5035047;28;20247;-82
2024/01/05 04:08:13;;;;;;;21.60;1.83;;;7.50;99.90;;;;;;5034770;28;20408;-81
2024/01/05 04:10:39;;;;;;;22.63;2.10;;;7.50;99.90;;;;;;5034637;28;20535;-82
2024/01/05 04:13:05;;;;;;;20.43;1.73;;;7.50;99.90;;;;;;5034894;28;20162;-81
2024/01/05 04:15:35;;;;;;;20.52;1.65;;;7.50;99.90;;;;;;5037130;28;20184;-82
2024/01/05 04:18:01;;;;;;;20.20;1.88;;;7.50;99.90;;;;;;5038614;28;20231;-82
2024/01/05 04:20:26;;;;;;;26.33;1.70;;;7.50;99.90;;;;;;5038606;28;20198;-81
2024/01/05 04:22:52;;;;;;;23.50;2.17;;;7.60;99.90;;;;;;5038993;28;20193;-81
2024/01/05 04:25:18;;;;;;;22.23;2.50;;;7.60;99.90;;;;;;5038721;28;20185;-82
2024/01/05 04:27:44;;;;;;;20.90;2.47;;;7.60;99.90;;;;;;5020575;28;20186;-82
2024/01/05 04:30:10;;;;;;;24.37;2.50;;;7.60;99.90;;;;;;5038779;28;20165;-82
2024/01/05 04:32:37;;;;;;;21.52;2.28;;;7.70;99.90;;;;;;5038354;28;20163;-81
2024/01/05 04:35:03;;;;;;;21.30;2.33;;;7.70;99.90;;;;;;5038499;28;20162;-82
2024/01/05 04:37:29;;;;;;;18.60;1.60;;;7.80;99.90;;;;;;5038749;28;20186;-81
2024/01/05 04:39:57;;;;;;;23.63;2.60;;;7.80;99.90;;;;;;5038405;28;20223;-82
2024/01/05 04:42:23;;;;;;;22.85;2.40;;;7.80;99.90;;;;;;5038408;28;20554;-82
2024/01/05 04:44:51;;;;;;;24.23;2.40;;;7.80;99.90;;;;;;5038194;28;20166;-81
2024/01/05 04:47:18;;;;;;;29.15;3.03;;;7.80;99.90;;;;;;5038159;28;20328;-82
2024/01/05 04:49:44;;;;;;;22.33;2.65;;;7.80;99.90;;;;;;5038281;28;20635;-82
2024/01/05 04:52:10;;;;;;;22.50;1.80;;;7.80;99.90;;;;;;5038367;28;20528;-82
2024/01/05 04:54:36;;;;;;;29.10;3.30;;;7.90;99.90;;;;;;5020102;28;20198;-82
2024/01/05 04:57:02;;;;;;;23.80;2.50;;;7.90;99.90;;;;;;5038046;28;20273;-82
2024/01/05 04:59:28;;;;;;;20.40;2.13;;;8.00;99.90;;;;;;5020458;28;20308;-81
2024/01/05 05:01:54;;;;;;;22.23;2.23;;;8.00;99.90;;;;;;5020217;28;20174;-81
2024/01/05 05:04:19;;;;;;;23.17;2.70;;;8.00;99.90;;;;;;5020121;28;20554;-81
2024/01/05 05:06:45;;;;;;;20.00;2.43;;;8.00;99.90;;;;;;5020598;28;20186;-82
2024/01/05 05:09:12;;;;;;;22.63;2.27;;;8.00;99.90;;;;;;5020476;28;20634;-80
2024/01/05 05:11:40;;;;;;;25.50;2.28;;;7.90;99.90;;;;;;5038454;28;20169;-82
2024/01/05 05:14:05;;;;;;;28.10;2.80;;;7.90;99.90;;;;;;5037905;28;20162;-82
2024/01/05 05:16:32;;;;;;;19.17;1.90;;;7.90;99.90;;;;;;5038032;28;20212;-82
2024/01/05 05:18:57;;;;;;;24.08;2.53;;;7.90;99.90;;;;;;5037910;28;20638;-82
2024/01/05 05:21:25;;;;;;;21.13;1.83;;;7.80;99.90;;;;;;5020350;28;20269;-82
2024/01/05 05:23:51;;;;;;;18.50;1.48;;;7.90;99.90;;;;;;5038152;28;20194;-81
2024/01/05 05:26:19;;;;;;;22.70;2.27;;;7.90;99.90;;;;;;5037568;28;20712;-82
2024/01/05 05:28:45;;;;;;;25.48;2.42;;;7.90;99.90;;;;;;5037853;28;20226;-82
2024/01/05 05:31:11;;;;;;;22.70;2.17;;;8.00;99.90;;;;;;5038050;28;20182;-82
2024/01/05 05:33:37;;;;;;;18.67;1.73;;;8.00;99.90;;;;;;5037952;28;20537;-82
2024/01/05 05:36:02;;;;;;;21.40;2.13;;;8.00;99.90;;;;;;5037446;28;20427;-82
2024/01/05 05:38:28;;;;;;;21.70;2.63;;;8.10;99.90;;;;;;5037660;28;20173;-82
2024/01/05 05:40:54;;;;;;;23.43;2.30;;;8.10;99.90;;;;;;5037375;28;20405;-82
2024/01/05 05:43:20;;;;;;;19.77;2.00;;;8.10;99.90;;;;;;5037690;28;20189;-81
2024/01/05 05:45:45;;;;;;;19.83;2.40;;;8.20;99.90;;;;;;5037641;28;20193;-82
2024/01/05 05:48:12;;;;;;;19.73;1.63;;;8.20;99.90;;;;;;5019523;28;20170;-82
2024/01/05 05:50:38;;;;;;;20.13;2.50;;;8.20;99.90;;;;;;5037263;28;20232;-81
2024/01/05 05:53:04;;;;;;;18.87;1.80;;;8.20;99.90;;;;;;5019637;28;20174;-82
2024/01/05 05:55:30;;;;;;;19.27;2.13;;;8.20;99.90;;;;;;5037279;28;20173;-82
2024/01/05 05:57:57;;;;;;;23.85;2.67;;;8.20;99.90;;;;;;5019315;28;20693;-82
2024/01/05 06:00:24;;;;;;;22.17;2.10;;;8.20;99.90;;;;;;5036901;28;20166;-82
2024/01/05 06:02:49;;;;;;;23.75;1.65;;;8.20;99.90;;;;;;5037434;28;20178;-81
2024/01/05 06:05:15;;;;;;;23.67;2.60;;;8.20;99.90;;;;;;5037434;28;20240;-82
2024/01/05 06:07:41;;;;;;;22.50;1.87;;;8.10;99.90;;;;;;5036601;28;20186;-82
2024/01/05 06:10:07;;;;;;;19.57;2.07;;;8.10;99.90;;;;;;5037569;28;20669;-81
2024/01/05 06:12:33;;;;;;;25.23;2.53;;;8.00;99.90;;;;;;5018883;28;20683;-82
2024/01/05 06:14:59;;;;;;;21.67;2.03;;;8.00;99.90;;;;;;5037183;28;20248;-82
2024/01/05 06:17:25;;;;;;;19.53;1.50;;;8.00;99.90;;;;;;5019268;28;20308;-82
2024/01/05 06:19:50;;;;;;;20.23;2.10;;;8.00;99.90;;;;;;5036700;28;20409;-82
2024/01/05 06:22:16;;;;;;;18.20;1.50;;;8.00;99.90;;;;;;5036824;28;20162;-82
2024/01/05 06:24:44;;;;;;;21.73;2.00;;;7.90;99.90;;;;;;5037881;28;20162;-82
2024/01/05 06:27:11;;;;;;;21.88;1.85;;;7.90;99.90;;;;;;5036532;28;20427;-81
2024/01/05 06:29:37;;;;;;;18.60;1.85;;;7.90;99.90;;;;;;5036679;28;20179;-82
2024/01/05 06:32:03;;;;;;;19.70;2.10;;;7.90;99.90;;;;;;5036912;28;20229;-82
2024/01/05 06:34:28;;;;;;;19.37;2.03;;;7.80;99.90;;;;;;5037742;28;20408;-82
2024/01/05 06:36:54;;;;;;;19.80;2.00;;;7.80;99.90;;;;;;5036661;28;20515;-81
2024/01/05 06:39:20;;;;;;;18.87;2.30;;;7.80;99.90;;;;;;5036492;28;20176;-82
2024/01/05 06:41:46;;;;;;;17.90;2.00;;;7.80;99.90;;;;;;5036718;28;20174;-82
2024/01/05 06:44:11;;;;;;;18.70;2.40;;;7.80;99.90;;;;;;5018849;28;20565;-82
2024/01/05 06:46:37;;;;;;;23.60;2.40;;;7.70;99.90;;;;;;5036374;28;20240;-82
2024/01/05 06:49:05;;;;;;;20.93;1.93;;;7.70;99.90;;;;;;5036647;28;20249;-82
2024/01/05 06:51:38;;;;;;;24.10;2.40;;;7.70;99.90;;;;;;5018547;28;20180;-82
2024/01/05 06:54:04;;;;;;;18.60;2.00;;;7.70;99.90;;;;;;5036509;28;20507;-82
2024/01/05 06:56:32;;;;;;;21.02;1.90;;;7.60;99.90;;;;;;5036421;28;20185;-81
2024/01/05 06:58:59;;;;;;;18.80;2.15;;;7.60;99.90;;;;;;5036564;28;20197;-82
2024/01/05 07:01:25;;;;;;;22.98;2.25;;;7.60;99.90;;;;;;5036308;28;20162;-82
2024/01/05 07:03:51;;;;;;;20.47;2.27;;;7.60;99.90;;;;;;5035635;28;20201;-82
2024/01/05 07:06:16;;;;;;;24.43;2.43;;;7.60;99.90;;;;;;5035996;28;20181;-82
2024/01/05 07:08:42;;;;;;;19.73;2.43;;;7.70;99.90;;;;;;5035782;28;20245;-81
2024/01/05 07:11:09;;;;;;;18.80;2.27;;;7.70;99.90;;;;;;5036111;28;20161;-81
2024/01/05 07:13:35;;;;;;;19.50;1.63;;;7.70;99.90;;;;;;5036251;28;20161;-82
2024/01/05 07:16:01;;;;;;;17.70;1.70;;;7.70;99.90;;;;;;5036431;28;20189;-82
2024/01/05 07:18:26;;;;;;;18.27;1.87;;;7.70;99.90;;;;;;5036826;28;20162;-81
2024/01/05 07:20:52;;;;;;;19.57;1.97;;;7.60;99.90;;;;;;5037138;28;20174;-82
2024/01/05 07:23:18;;;;;;;20.80;2.23;;;7.60;99.90;;;;;;5036385;28;20197;-82
2024/01/05 07:25:43;;;;;;;20.10;1.70;;;7.50;99.90;;;;;;5018616;28;20193;-82
2024/01/05 07:28:09;;;;;;;22.00;2.00;;;7.50;99.90;;;;;;5035758;28;20166;-82
2024/01/05 07:30:34;;;;;;;22.70;2.23;;;7.60;99.90;;;;;;5036118;28;20162;-82
2024/01/05 07:33:00;;;;;;;18.07;1.93;;;7.60;99.90;;;;;;5035829;28;20253;-82
2024/01/05 07:35:26;;;;;;;19.03;1.80;;;7.60;99.90;;;;;;5035890;28;20170;-83
2024/01/05 07:37:53;;;;;;;23.67;2.23;;;7.60;99.90;;;;;;5035718;28;20166;-82
2024/01/05 07:40:18;;;;;;;21.23;2.80;;;7.60;99.90;;;;;;5036042;28;20265;-82
2024/01/05 07:42:44;;;;;;;18.30;2.27;;;7.60;99.90;;;;;;5018257;28;20201;-82
2024/01/05 07:45:10;;;;;;;19.10;2.83;;;7.70;99.90;;;;;;5018143;28;20192;-83
2024/01/05 07:47:36;;;;;;;17.58;2.20;;;7.70;99.90;;;;;;5036219;28;20178;-82
2024/01/05 07:50:02;;;;;;;20.40;2.27;;;7.70;99.90;;;;;;5035381;28;20169;-83
2024/01/05 07:52:28;;;;;;;20.88;1.75;;;7.70;99.90;;;;;;5035318;28;20173;-82
2024/01/05 07:54:54;;;;;;;21.47;1.57;;;7.70;99.90;;;;;;5035742;28;20161;-82
2024/01/05 07:57:19;;;;;;;20.77;1.83;;;7.70;99.90;;;;;;5035329;28;20193;-81
2024/01/05 07:59:45;;;;;;;21.30;2.17;;;7.80;99.90;;;;;;5035532;28;20162;-82
2024/01/05 08:02:11;;;;;;;22.43;1.97;;;7.80;99.90;;;;;;5035464;28;20220;-81
2024/01/05 08:04:36;;;;;;;17.13;1.40;;;7.80;99.90;;;;;;5035622;28;20185;-83
2024/01/05 08:07:02;;;;;;;20.60;1.80;;;7.80;99.90;;;;;;5035843;28;20424;-82
2024/01/05 08:09:28;;;;;;;18.35;1.60;;;7.80;99.90;;;;;;5035299;28;20173;-83
2024/01/05 08:11:54;;;;;;;18.67;1.60;;;7.80;99.90;;;;;;5035624;28;20162;-82
2024/01/05 08:14:20;;;;;;;22.03;1.60;;;7.90;99.90;;;;;;5017780;28;20495;-82
2024/01/05 08:16:45;;;;;;;20.30;1.40;;;7.90;99.90;;;;;;5035282;28;20213;-82
2024/01/05 08:19:11;;;;;;;17.27;1.57;;;7.90;99.90;;;;;;5036043;28;20188;-82
2024/01/05 08:21:37;;;;;;;17.67;2.03;;;8.00;99.90;;;;;;5035796;28;20169;-82
2024/01/05 08:24:03;;;;;;;19.40;1.53;;;8.00;99.90;;;;;;5035334;28;20196;-82
2024/01/05 08:26:28;;;;;;;17.80;1.40;;;8.00;99.90;;;;;;5016991;28;20486;-82
2024/01/05 08:28:54;;;;;;;17.97;1.40;;;8.00;99.90;;;;;;5017681;28;20174;-82
2024/01/05 08:31:20;;;;;;;16.67;1.07;;;8.00;99.90;;;;;;5035892;28;20158;-82
2024/01/05 08:33:45;;;;;;;16.40;1.20;;;8.10;99.90;;;;;;5036574;28;20678;-82
2024/01/05 08:36:11;;;;;;;18.30;0.93;;;8.10;99.90;;;;;;5034993;28;20244;-82
2024/01/05 08:38:37;;;;;;;16.43;1.00;;;8.10;99.90;;;;;;5035414;28;20158;-82
2024/01/05 08:41:03;;;;;;;17.90;1.47;;;8.10;99.90;;;;;;5034968;28;20405;-81
2024/01/05 08:43:28;;;;;;;21.10;0.97;;;8.20;99.90;;;;;;5017370;28;20224;-82
2024/01/05 08:45:54;;;;;;;15.87;0.90;;;8.20;99.90;;;;;;5034992;28;20181;-83
2024/01/05 08:48:19;;;;;;;16.20;0.90;;;8.20;99.90;;;;;;5034850;28;20308;-81
2024/01/05 08:50:45;;;;;;;15.60;0.80;;;8.20;99.90;;;;;;5035061;28;20162;-81
2024/01/05 08:53:12;;;;;;;15.83;0.80;;;8.20;99.90;;;;;;5034886;28;20198;-82
2024/01/05 08:55:37;;;;;;;16.30;1.00;;;8.20;99.90;;;;;;5034632;28;20260;-81
2024/01/05 08:58:04;;;;;;;15.27;0.80;;;8.30;99.90;;;;;;5017072;28;20189;-81
2024/01/05 09:00:29;;;;;;;16.10;1.00;;;8.30;99.90;;;;;;5035759;28;20174;-81
2024/01/05 09:02:55;;;;;;;16.07;1.00;;;8.30;99.90;;;;;;5038570;28;20196;-83
2024/01/05 09:05:21;;;;;;;16.00;0.93;;;8.40;99.90;;;;;;5021223;28;20182;-81
2024/01/05 09:07:48;;;;;;;15.57;0.90;;;8.40;99.90;;;;;;5038266;28;20409;-82
2024/01/05 09:10:14;;;;;;;18.55;1.05;;;8.40;99.90;;;;;;5038217;28;20166;-81
2024/01/05 09:12:40;;;;;;;15.50;0.80;;;8.50;99.90;;;;;;5043057;28;20253;-81
2024/01/05 09:15:07;;;;;;;16.80;1.27;;;8.40;85.50;;;;;;5037967;28;20698;-83
2024/01/05 09:17:33;;;;;;;16.00;0.85;;;8.40;78.30;;;;;;5038056;28;20186;-83
2024/01/05 09:19:59;;;;;;;16.23;1.00;;;8.50;62.10;;;;;;5038114;28;20173;-80
2024/01/05 09:22:25;;;;;;;18.37;1.30;;;8.50;25.00;;;;;;5038140;28;20166;-83
2024/01/05 09:24:51;;;;;;;16.13;0.90;;;8.50;18.50;;;;;;5038132;28;20405;-82
2024/01/05 09:27:16;;;;;;;15.77;1.03;;;8.50;1.00;;;;;;5019878;28;20193;-82
2024/01/05 09:29:42;;;;;;;15.57;0.93;;;8.50;1.00;;;;;;5019992;28;20416;-81
2024/01/05 09:32:11;;;;;;;15.30;0.80;;;8.50;1.00;;;;;;5037766;28;20173;-82
2024/01/05 09:34:36;;;;;;;15.55;0.80;;;8.50;1.00;;;;;;5037973;28;20252;-82
2024/01/05 09:37:02;;;;;;;15.27;0.80;;;8.50;1.00;;;;;;5037690;28;20210;-83
2024/01/05 09:39:28;;;;;;;20.20;0.97;;;8.60;1.00;;;;;;5037802;28;20673;-81
2024/01/05 09:41:54;;;;;;;15.33;0.80;;;8.60;1.00;;;;;;5019845;28;20542;-81
2024/01/05 09:44:21;;;;;;;16.00;0.97;;;8.70;1.00;;;;;;5037406;28;20444;-82
2024/01/05 09:46:47;;;;;;;16.83;0.98;;;8.80;1.00;;;;;;5018835;28;20186;-80
2024/01/05 09:49:18;;;;;;;15.90;0.80;;;8.90;1.00;;;;;;5019296;28;20639;-82
2024/01/05 09:51:45;;;;;;;15.80;0.95;;;8.90;1.00;;;;;;5036861;28;20397;-81
2024/01/05 09:54:12;;;;;;;15.60;1.10;;;9.10;1.00;;;;;;5036870;28;20161;-82
2024/01/05 09:56:39;;;;;;;14.80;0.70;;;9.20;1.00;;;;;;5036681;28;20305;-82
2024/01/05 09:59:06;;;;;;;15.05;0.88;;;9.40;1.00;;;;;;5037453;28;20190;-83
2024/01/05 10:01:34;;;;;;;15.10;0.80;;;9.40;1.00;;;;;;5037315;28;20252;-82
2024/01/05 10:04:01;;;;;;;15.20;0.75;;;9.30;1.00;;;;;;5037599;28;20237;-81
2024/01/05 10:06:29;;;;;;;16.00;1.00;;;9.30;1.00;;;;;;5036991;28;20201;-81
2024/01/05 10:08:58;;;;;;;17.50;1.10;;;9.50;1.00;;;;;;5018944;28;20181;-81
2024/01/05 10:11:34;;;;;;;15.90;0.85;;;9.40;1.00;;;;;;5018764;28;20543;-83
2024/01/05 10:14:04;;;;;;;17.40;1.00;;;9.40;1.00;;;;;;5036227;28;20151;-82
2024/01/05 10:16:37;;;;;;;15.55;0.85;;;9.40;1.00;;;;;;5020069;28;20271;-82
2024/01/05 10:19:13;;;;;;;15.32;0.95;;;9.50;1.00;;;;;;5037160;28;20147;-81
2024/01/05 10:21:41;;;;;;;14.90;0.90;;;9.50;1.00;;;;;;5019100;28;20170;-83
2024/01/05 10:24:27;;;;;;;15.13;0.90;;;9.50;1.00;;;;;;5018811;28;20757;-82
2024/01/05 10:27:12;;;;;;;15.27;0.90;;;9.40;1.00;;;;;;5018770;28;20707;-82
2024/01/05 10:29:43;;;;;;;15.20;1.00;;;9.40;1.00;;;;;;5036685;28;20154;-82
2024/01/05 10:32:14;;;;;;;15.98;0.95;;;9.30;1.00;;;;;;5036773;28;20197;-82
2024/01/05 10:34:44;;;;;;;15.57;0.93;;;9.50;1.00;;;;;;5018860;28;20166;-82
2024/01/05 10:37:10;;;;;;;15.48;0.85;;;9.50;1.00;;;;;;5019072;28;20190;-82
2024/01/05 10:39:36;;;;;;;16.63;0.80;;;9.60;1.00;;;;;;5036573;28;20504;-82
2024/01/05 10:42:27;;;;;;;16.67;0.90;;;9.50;1.00;;;;;;5036489;28;20500;-82
2024/01/05 10:44:55;;;;;;;15.15;1.00;;;9.50;1.00;;;;;;5019111;28;20184;-82
2024/01/05 10:47:23;;;;;;;15.63;1.20;;;9.50;1.00;;;;;;5036289;28;20229;-83
2024/01/05 10:49:50;;;;;;;15.35;0.80;;;9.50;1.00;;;;;;5019172;28;20173;-83
2024/01/05 10:52:37;;;;;;;14.95;0.85;;;9.50;1.00;;;;;;5036671;28;20173;-81
2024/01/05 10:55:04;;;;;;;16.33;0.90;;;9.50;1.00;;;;;;5036778;28;20518;-83
2024/01/05 10:57:30;;;;;;;15.23;1.10;;;9.70;1.00;;;;;;5018421;28;20189;-82
2024/01/05 10:59:57;;;;;;;17.17;1.10;;;9.60;1.00;;;;;;5036322;28;20174;-82
2024/01/05 11:02:39;;;;;;;15.63;1.05;;;9.50;1.00;;;;;;5035957;28;20177;-82
2024/01/05 11:05:13;;;;;;;15.07;0.80;;;9.30;1.00;;;;;;5036296;28;20174;-82
2024/01/05 11:07:40;;;;;;;15.35;1.10;;;9.40;1.00;;;;;;5018324;28;20182;-81
2024/01/05 11:10:27;;;;;;;21.00;0.90;;;9.30;1.00;;;;;;5036232;28;20256;-81
2024/01/05 11:13:25;;;;;;;15.05;0.80;;;9.30;1.00;;;;;;5018325;28;20161;-81
2024/01/05 11:16:09;;;;;;;16.15;1.10;;;9.50;1.00;;;;;;4997967;28;20213;-82
2024/01/05 11:18:52;;;;;;;18.23;1.50;;;9.40;1.00;;;;;;5035656;28;20227;-83
2024/01/05 11:21:32;;;;;;;15.90;1.10;;;9.50;1.00;;;;;;5035660;28;20164;-82
2024/01/05 11:23:58;;;;;;;15.23;0.90;;;9.50;1.00;;;;;;5036069;28;20188;-83
2024/01/05 11:26:35;;;;;;;15.30;0.90;;;9.50;1.00;;;;;;5018240;28;20186;-83
2024/01/05 11:29:04;;;;;;;15.60;0.90;;;9.50;1.00;;;;;;5035094;28;20765;-83
2024/01/05 11:31:45;;;;;;;16.20;1.48;;;9.60;1.00;;;;;;5035615;28;20530;-83
2024/01/05 11:34:34;;;;;;;15.68;1.40;;;9.60;1.00;;;;;;5035885;28;20169;-82
2024/01/05 11:37:06;;;;;;;15.70;1.30;;;9.70;1.00;;;;;;5035581;28;20185;-82
2024/01/05 11:39:47;;;;;;;15.40;1.10;;;9.70;1.00;;;;;;5017887;28;20639;-83
2024/01/05 11:42:25;;;;;;;15.00;0.88;;;9.70;1.00;;;;;;5017811;28;20165;-80
2024/01/05 11:44:52;;;;;;;16.98;1.00;;;9.70;1.00;;;;;;5035350;28;20169;-82
2024/01/05 11:47:46;;;;;;;16.17;0.95;;;9.70;1.00;;;;;;5035211;28;20178;-83
2024/01/05 11:50:33;;;;;;;14.85;0.85;;;9.70;1.00;;;;;;5035342;28;20191;-80
2024/01/05 11:53:06;;;;;;;15.35;0.93;;;9.60;1.00;;;;;;5035275;28;20150;-82
2024/01/05 11:55:39;;;;;;;18.15;1.25;;;9.50;1.00;;;;;;5017124;28;20170;-82
2024/01/05 11:58:05;;;;;;;15.85;1.60;;;9.50;1.00;;;;;;5034668;28;20229;-81
2024/01/05 12:00:31;;;;;;;15.32;0.98;;;9.50;1.00;;;;;;5034875;28;20189;-81
2024/01/05 12:03:03;;;;;;;15.13;1.10;;;9.50;1.00;;;;;;5034797;28;20221;-82
2024/01/05 12:05:29;;;;;;;15.60;1.10;;;9.70;1.00;;;;;;5017031;28;20178;-81
2024/01/05 12:07:58;;;;;;;15.00;0.80;;;9.80;1.00;;;;;;5034766;28;20165;-83
2024/01/05 12:10:27;;;;;;;15.15;1.08;;;9.90;1.00;;;;;;5034802;28;20173;-81
2024/01/05 12:12:54;;;;;;;17.05;1.25;;;9.70;1.00;;;;;;5035166;28;20675;-82
2024/01/05 12:15:20;;;;;;;14.75;0.90;;;9.80;1.00;;;;;;5034570;28;20213;-82
2024/01/05 12:17:47;;;;;;;16.45;0.93;;;9.90;1.00;;;;;;5034496;28;20193;-81
2024/01/05 12:20:13;;;;;;;16.10;1.10;;;10.00;1.00;;;;;;5016898;28;20170;-82
2024/01/05 12:22:40;;;;;;;15.13;1.00;;;10.10;1.00;;;;;;5016867;28;20562;-82
2024/01/05 12:25:06;;;;;;;15.35;1.20;;;10.00;1.00;;;;;;5034099;28;20249;-82
2024/01/05 12:27:38;;;;;;;15.70;0.90;;;10.00;1.00;;;;;;5034399;28;20240;-82
2024/01/05 12:30:09;;;;;;;16.33;1.05;;;10.00;1.00;;;;;;5034625;28;20405;-81
2024/01/05 12:32:36;;;;;;;14.65;0.90;;;9.90;1.00;;;;;;5016676;28;20173;-82
2024/01/05 12:35:05;;;;;;;14.95;0.80;;;9.90;1.00;;;;;;5034703;28;20256;-82
2024/01/05 12:37:34;;;;;;;15.80;1.02;;;9.90;1.00;;;;;;5037741;28;20182;-82
2024/01/05 12:40:11;;;;;;;16.17;1.00;;;9.90;1.00;;;;;;5038305;28;20166;-82
2024/01/05 12:42:37;;;;;;;16.40;1.30;;;9.80;1.00;;;;;;5038227;28;20224;-81
2024/01/05 12:45:10;;;;;;;15.23;0.90;;;9.80;1.00;;;;;;5020221;28;20170;-82
2024/01/05 12:47:36;;;;;;;14.80;0.90;;;9.80;1.00;;;;;;5019962;28;20605;-81
2024/01/05 12:50:05;;;;;;;16.00;1.10;;;9.80;1.00;;;;;;5020237;28;20173;-83
2024/01/05 12:52:38;;;;;;;19.23;0.95;;;9.80;1.00;;;;;;5019910;28;20212;-80